Terminal Aerodrome Forecast
Issued by NWS

Home | Current Version | Previous Version | Text Only | Print | Product List | Glossary On
Versions: 1 2 3 4 5 6 7 8 9 10 11 12 13 14 15 16 17 18
000
FTUS46 KOTX 010102 AAA
TAFPUW
TAF AMD
KPUW 010102Z 0101/0124 32006KT P6SM VCSH SCT025 BKN070 BKN120
      TEMPO 0101/0102 1SM TSRA BKN035CB
     FM010200 30009KT P6SM SCT040 BKN120
     FM010600 06004KT P6SM FEW150=

USA.gov is the U.S. government's official web portal to all federal, state and local government web resources and services.